sensor_id;sensor_type;location;lat;lon;timestamp;P1;durP1;ratioP1;P2;durP2;ratioP2
64500;SDS011;50874;24.150;-110.320;2023-06-14T00:02:12;17.55;;;3.22;;
64500;SDS011;50874;24.150;-110.320;2023-06-14T00:04:39;22.83;;;2.35;;
64500;SDS011;50874;24.150;-110.320;2023-06-14T00:07:07;11.23;;;1.80;;
64500;SDS011;50874;24.150;-110.320;2023-06-14T00:09:34;17.92;;;2.47;;
64500;SDS011;50874;24.150;-110.320;2023-06-14T00:12:00;20.70;;;2.97;;
64500;SDS011;50874;24.150;-110.320;2023-06-14T00:14:27;14.45;;;2.85;;
64500;SDS011;50874;24.150;-110.320;2023-06-14T00:16:54;18.90;;;2.78;;
64500;SDS011;50874;24.150;-110.320;2023-06-14T00:19:24;10.10;;;2.15;;
64500;SDS011;50874;24.150;-110.320;2023-06-14T00:21:51;9.88;;;2.35;;
64500;SDS011;50874;24.150;-110.320;2023-06-14T00:24:18;25.83;;;4.07;;
64500;SDS011;50874;24.150;-110.320;2023-06-14T00:26:45;21.17;;;2.67;;
64500;SDS011;50874;24.150;-110.320;2023-06-14T00:29:11;16.17;;;2.10;;
64500;SDS011;50874;24.150;-110.320;2023-06-14T00:31:38;17.13;;;2.33;;
64500;SDS011;50874;24.150;-110.320;2023-06-14T00:34:04;12.23;;;2.70;;
64500;SDS011;50874;24.150;-110.320;2023-06-14T00:36:31;21.73;;;2.65;;
64500;SDS011;50874;24.150;-110.320;2023-06-14T00:38:57;14.73;;;2.67;;
64500;SDS011;50874;24.150;-110.320;2023-06-14T00:41:23;22.75;;;2.70;;
64500;SDS011;50874;24.150;-110.320;2023-06-14T00:43:50;27.60;;;2.92;;
64500;SDS011;50874;24.150;-110.320;2023-06-14T00:46:17;6.45;;;1.92;;
64500;SDS011;50874;24.150;-110.320;2023-06-14T00:48:45;9.30;;;2.03;;
64500;SDS011;50874;24.150;-110.320;2023-06-14T00:51:12;14.48;;;2.65;;
64500;SDS011;50874;24.150;-110.320;2023-06-14T00:53:39;12.57;;;2.35;;
64500;SDS011;50874;24.150;-110.320;2023-06-14T00:56:11;17.60;;;2.50;;
64500;SDS011;50874;24.150;-110.320;2023-06-14T00:58:40;26.77;;;2.60;;
64500;SDS011;50874;24.150;-110.320;2023-06-14T01:01:07;15.23;;;2.70;;
64500;SDS011;50874;24.150;-110.320;2023-06-14T01:03:34;31.08;;;3.08;;
64500;SDS011;50874;24.150;-110.320;2023-06-14T01:15:01;10.98;;;2.58;;
64500;SDS011;50874;24.150;-110.320;2023-06-14T01:17:28;21.30;;;2.55;;
64500;SDS011;50874;24.150;-110.320;2023-06-14T01:20:01;27.60;;;2.80;;
64500;SDS011;50874;24.150;-110.320;2023-06-14T01:22:32;13.13;;;3.08;;
64500;SDS011;50874;24.150;-110.320;2023-06-14T01:24:58;17.48;;;2.70;;
64500;SDS011;50874;24.150;-110.320;2023-06-14T01:27:26;19.52;;;3.58;;
64500;SDS011;50874;24.150;-110.320;2023-06-14T01:29:57;13.02;;;2.40;;
64500;SDS011;50874;24.150;-110.320;2023-06-14T01:32:27;15.65;;;2.78;;
64500;SDS011;50874;24.150;-110.320;2023-06-14T01:34:55;20.08;;;3.45;;
64500;SDS011;50874;24.150;-110.320;2023-06-14T01:37:21;25.77;;;3.50;;
64500;SDS011;50874;24.150;-110.320;2023-06-14T01:39:48;20.52;;;3.45;;
64500;SDS011;50874;24.150;-110.320;2023-06-14T01:42:16;20.35;;;3.25;;
64500;SDS011;50874;24.150;-110.320;2023-06-14T01:44:43;25.15;;;3.33;;
64500;SDS011;50874;24.150;-110.320;2023-06-14T01:47:11;26.38;;;3.42;;
64500;SDS011;50874;24.150;-110.320;2023-06-14T01:49:38;24.13;;;3.05;;
64500;SDS011;50874;24.150;-110.320;2023-06-14T01:52:05;24.48;;;3.70;;
64500;SDS011;50874;24.150;-110.320;2023-06-14T01:54:35;16.67;;;2.97;;
64500;SDS011;50874;24.150;-110.320;2023-06-14T01:57:07;39.95;;;4.50;;
64500;SDS011;50874;24.150;-110.320;2023-06-14T01:59:34;28.77;;;4.35;;
64500;SDS011;50874;24.150;-110.320;2023-06-14T02:02:02;30.38;;;4.88;;
64500;SDS011;50874;24.150;-110.320;2023-06-14T02:04:29;26.02;;;3.30;;
64500;SDS011;50874;24.150;-110.320;2023-06-14T02:06:55;155.70;;;9.63;;
64500;SDS011;50874;24.150;-110.320;2023-06-14T02:09:21;26.50;;;2.60;;
64500;SDS011;50874;24.150;-110.320;2023-06-14T02:11:49;16.65;;;2.40;;
64500;SDS011;50874;24.150;-110.320;2023-06-14T02:14:15;35.15;;;5.25;;
64500;SDS011;50874;24.150;-110.320;2023-06-14T02:16:42;21.48;;;4.57;;
64500;SDS011;50874;24.150;-110.320;2023-06-14T02:19:17;21.40;;;2.95;;
64500;SDS011;50874;24.150;-110.320;2023-06-14T02:21:44;23.20;;;3.20;;
64500;SDS011;50874;24.150;-110.320;2023-06-14T02:24:11;29.55;;;4.10;;
64500;SDS011;50874;24.150;-110.320;2023-06-14T02:26:37;16.88;;;3.03;;
64500;SDS011;50874;24.150;-110.320;2023-06-14T02:29:04;33.13;;;4.85;;
64500;SDS011;50874;24.150;-110.320;2023-06-14T02:31:31;26.45;;;3.40;;
64500;SDS011;50874;24.150;-110.320;2023-06-14T02:33:58;14.75;;;2.65;;
64500;SDS011;50874;24.150;-110.320;2023-06-14T02:36:24;16.52;;;3.03;;
64500;SDS011;50874;24.150;-110.320;2023-06-14T02:38:51;17.73;;;3.47;;
64500;SDS011;50874;24.150;-110.320;2023-06-14T02:41:19;11.40;;;2.20;;
64500;SDS011;50874;24.150;-110.320;2023-06-14T02:43:45;15.35;;;2.95;;
64500;SDS011;50874;24.150;-110.320;2023-06-14T02:46:12;16.70;;;2.58;;
64500;SDS011;50874;24.150;-110.320;2023-06-14T02:48:38;9.18;;;3.42;;
64500;SDS011;50874;24.150;-110.320;2023-06-14T02:51:05;17.27;;;3.03;;
64500;SDS011;50874;24.150;-110.320;2023-06-14T02:53:33;22.02;;;3.75;;
64500;SDS011;50874;24.150;-110.320;2023-06-14T02:56:00;17.17;;;3.10;;
64500;SDS011;50874;24.150;-110.320;2023-06-14T02:58:28;21.55;;;3.15;;
64500;SDS011;50874;24.150;-110.320;2023-06-14T03:00:54;24.05;;;4.20;;
64500;SDS011;50874;24.150;-110.320;2023-06-14T03:03:21;22.40;;;3.55;;
64500;SDS011;50874;24.150;-110.320;2023-06-14T03:05:49;19.60;;;3.13;;
64500;SDS011;50874;24.150;-110.320;2023-06-14T03:08:17;30.35;;;4.55;;
64500;SDS011;50874;24.150;-110.320;2023-06-14T03:10:45;30.10;;;5.10;;
64500;SDS011;50874;24.150;-110.320;2023-06-14T03:13:13;45.35;;;5.30;;
64500;SDS011;50874;24.150;-110.320;2023-06-14T03:15:41;24.92;;;4.53;;
64500;SDS011;50874;24.150;-110.320;2023-06-14T03:18:09;15.48;;;2.85;;
64500;SDS011;50874;24.150;-110.320;2023-06-14T03:20:35;22.50;;;3.30;;
64500;SDS011;50874;24.150;-110.320;2023-06-14T03:23:02;19.98;;;3.85;;
64500;SDS011;50874;24.150;-110.320;2023-06-14T03:25:30;13.65;;;2.88;;
64500;SDS011;50874;24.150;-110.320;2023-06-14T03:28:01;19.10;;;3.17;;
64500;SDS011;50874;24.150;-110.320;2023-06-14T03:30:28;24.42;;;5.13;;
64500;SDS011;50874;24.150;-110.320;2023-06-14T03:32:55;15.23;;;3.30;;
64500;SDS011;50874;24.150;-110.320;2023-06-14T03:35:22;30.67;;;4.65;;
64500;SDS011;50874;24.150;-110.320;2023-06-14T03:37:49;25.45;;;3.60;;
64500;SDS011;50874;24.150;-110.320;2023-06-14T03:40:18;24.42;;;4.03;;
64500;SDS011;50874;24.150;-110.320;2023-06-14T03:42:53;16.02;;;3.15;;
64500;SDS011;50874;24.150;-110.320;2023-06-14T03:45:20;12.95;;;2.55;;
64500;SDS011;50874;24.150;-110.320;2023-06-14T03:47:47;13.13;;;3.13;;
64500;SDS011;50874;24.150;-110.320;2023-06-14T03:50:13;11.45;;;2.10;;
64500;SDS011;50874;24.150;-110.320;2023-06-14T03:52:40;10.35;;;2.22;;
64500;SDS011;50874;24.150;-110.320;2023-06-14T03:55:09;14.25;;;2.58;;
64500;SDS011;50874;24.150;-110.320;2023-06-14T03:57:38;13.90;;;2.95;;
64500;SDS011;50874;24.150;-110.320;2023-06-14T04:00:05;15.48;;;2.80;;
64500;SDS011;50874;24.150;-110.320;2023-06-14T04:02:33;17.25;;;3.22;;
64500;SDS011;50874;24.150;-110.320;2023-06-14T04:05:00;10.32;;;1.83;;
64500;SDS011;50874;24.150;-110.320;2023-06-14T04:07:27;17.70;;;3.50;;
64500;SDS011;50874;24.150;-110.320;2023-06-14T04:09:54;17.33;;;2.80;;
64500;SDS011;50874;24.150;-110.320;2023-06-14T04:12:21;19.30;;;3.88;;
64500;SDS011;50874;24.150;-110.320;2023-06-14T04:14:47;19.42;;;3.50;;
64500;SDS011;50874;24.150;-110.320;2023-06-14T04:17:13;17.55;;;2.90;;
64500;SDS011;50874;24.150;-110.320;2023-06-14T04:19:40;13.85;;;2.70;;
64500;SDS011;50874;24.150;-110.320;2023-06-14T04:22:06;12.85;;;3.28;;
64500;SDS011;50874;24.150;-110.320;2023-06-14T04:24:33;19.33;;;2.92;;
64500;SDS011;50874;24.150;-110.320;2023-06-14T04:27:00;12.65;;;2.88;;
64500;SDS011;50874;24.150;-110.320;2023-06-14T04:29:27;11.57;;;2.17;;
64500;SDS011;50874;24.150;-110.320;2023-06-14T04:31:55;16.15;;;2.58;;
64500;SDS011;50874;24.150;-110.320;2023-06-14T04:34:27;23.65;;;3.80;;
64500;SDS011;50874;24.150;-110.320;2023-06-14T04:36:59;16.13;;;3.38;;
64500;SDS011;50874;24.150;-110.320;2023-06-14T04:39:26;14.70;;;3.28;;
64500;SDS011;50874;24.150;-110.320;2023-06-14T04:41:53;21.85;;;3.25;;
64500;SDS011;50874;24.150;-110.320;2023-06-14T04:44:23;23.17;;;4.47;;
64500;SDS011;50874;24.150;-110.320;2023-06-14T04:46:58;25.65;;;4.85;;
64500;SDS011;50874;24.150;-110.320;2023-06-14T04:49:24;25.20;;;4.20;;
64500;SDS011;50874;24.150;-110.320;2023-06-14T04:51:52;27.23;;;4.07;;
64500;SDS011;50874;24.150;-110.320;2023-06-14T04:54:26;22.27;;;3.88;;
64500;SDS011;50874;24.150;-110.320;2023-06-14T04:56:55;31.25;;;4.35;;
64500;SDS011;50874;24.150;-110.320;2023-06-14T04:59:22;20.00;;;3.38;;
64500;SDS011;50874;24.150;-110.320;2023-06-14T05:01:49;28.60;;;5.50;;
64500;SDS011;50874;24.150;-110.320;2023-06-14T05:04:19;21.05;;;4.32;;
64500;SDS011;50874;24.150;-110.320;2023-06-14T05:06:47;29.02;;;5.30;;
64500;SDS011;50874;24.150;-110.320;2023-06-14T05:09:16;31.63;;;5.10;;
64500;SDS011;50874;24.150;-110.320;2023-06-14T05:11:43;22.70;;;4.00;;
64500;SDS011;50874;24.150;-110.320;2023-06-14T05:14:13;24.45;;;4.00;;
64500;SDS011;50874;24.150;-110.320;2023-06-14T05:16:40;25.83;;;4.72;;
64500;SDS011;50874;24.150;-110.320;2023-06-14T05:19:06;22.58;;;3.97;;
64500;SDS011;50874;24.150;-110.320;2023-06-14T05:21:33;34.80;;;6.30;;
64500;SDS011;50874;24.150;-110.320;2023-06-14T05:24:00;29.85;;;4.63;;
64500;SDS011;50874;24.150;-110.320;2023-06-14T05:26:27;29.08;;;4.97;;
64500;SDS011;50874;24.150;-110.320;2023-06-14T05:28:57;22.23;;;3.92;;
64500;SDS011;50874;24.150;-110.320;2023-06-14T05:31:24;23.20;;;4.32;;
64500;SDS011;50874;24.150;-110.320;2023-06-14T05:33:51;16.77;;;4.05;;
64500;SDS011;50874;24.150;-110.320;2023-06-14T05:36:19;24.92;;;4.05;;
64500;SDS011;50874;24.150;-110.320;2023-06-14T05:38:48;20.67;;;5.93;;
64500;SDS011;50874;24.150;-110.320;2023-06-14T05:41:16;18.63;;;4.38;;
64500;SDS011;50874;24.150;-110.320;2023-06-14T05:43:42;24.33;;;4.65;;
64500;SDS011;50874;24.150;-110.320;2023-06-14T05:46:09;29.00;;;5.95;;
64500;SDS011;50874;24.150;-110.320;2023-06-14T05:48:35;20.85;;;3.67;;
64500;SDS011;50874;24.150;-110.320;2023-06-14T05:51:02;19.67;;;4.90;;
64500;SDS011;50874;24.150;-110.320;2023-06-14T05:53:29;22.98;;;4.85;;
64500;SDS011;50874;24.150;-110.320;2023-06-14T05:55:55;27.52;;;5.05;;
64500;SDS011;50874;24.150;-110.320;2023-06-14T05:58:22;25.70;;;4.22;;
64500;SDS011;50874;24.150;-110.320;2023-06-14T06:00:48;27.75;;;5.22;;
64500;SDS011;50874;24.150;-110.320;2023-06-14T06:03:16;26.33;;;4.30;;
64500;SDS011;50874;24.150;-110.320;2023-06-14T06:05:42;18.83;;;3.88;;
64500;SDS011;50874;24.150;-110.320;2023-06-14T06:08:08;30.38;;;4.85;;
64500;SDS011;50874;24.150;-110.320;2023-06-14T06:10:35;22.00;;;4.72;;
64500;SDS011;50874;24.150;-110.320;2023-06-14T06:13:02;21.95;;;4.75;;
64500;SDS011;50874;24.150;-110.320;2023-06-14T06:15:28;24.92;;;4.35;;
64500;SDS011;50874;24.150;-110.320;2023-06-14T06:17:55;24.42;;;5.13;;
64500;SDS011;50874;24.150;-110.320;2023-06-14T06:20:22;19.48;;;4.47;;
64500;SDS011;50874;24.150;-110.320;2023-06-14T06:22:53;22.02;;;4.18;;
64500;SDS011;50874;24.150;-110.320;2023-06-14T06:25:20;35.78;;;5.25;;
64500;SDS011;50874;24.150;-110.320;2023-06-14T06:27:47;28.52;;;5.38;;
64500;SDS011;50874;24.150;-110.320;2023-06-14T06:30:14;26.20;;;5.40;;
64500;SDS011;50874;24.150;-110.320;2023-06-14T06:32:41;21.42;;;4.53;;
64500;SDS011;50874;24.150;-110.320;2023-06-14T06:35:07;28.63;;;4.63;;
64500;SDS011;50874;24.150;-110.320;2023-06-14T06:37:36;27.00;;;4.80;;
64500;SDS011;50874;24.150;-110.320;2023-06-14T06:40:05;24.40;;;4.78;;
64500;SDS011;50874;24.150;-110.320;2023-06-14T06:42:32;20.33;;;4.20;;
64500;SDS011;50874;24.150;-110.320;2023-06-14T06:44:59;26.48;;;4.88;;
64500;SDS011;50874;24.150;-110.320;2023-06-14T06:47:28;13.65;;;3.75;;
64500;SDS011;50874;24.150;-110.320;2023-06-14T06:49:54;17.98;;;3.75;;
64500;SDS011;50874;24.150;-110.320;2023-06-14T06:52:21;18.88;;;3.45;;
64500;SDS011;50874;24.150;-110.320;2023-06-14T06:54:47;17.13;;;3.33;;
64500;SDS011;50874;24.150;-110.320;2023-06-14T06:57:15;19.60;;;3.50;;
64500;SDS011;50874;24.150;-110.320;2023-06-14T06:59:42;18.67;;;3.53;;
64500;SDS011;50874;24.150;-110.320;2023-06-14T07:02:08;16.33;;;3.00;;
64500;SDS011;50874;24.150;-110.320;2023-06-14T07:04:35;18.63;;;3.50;;
64500;SDS011;50874;24.150;-110.320;2023-06-14T07:07:02;16.23;;;3.40;;
64500;SDS011;50874;24.150;-110.320;2023-06-14T07:09:28;26.25;;;3.75;;
64500;SDS011;50874;24.150;-110.320;2023-06-14T07:11:55;19.15;;;4.45;;
64500;SDS011;50874;24.150;-110.320;2023-06-14T07:14:21;23.05;;;4.10;;
64500;SDS011;50874;24.150;-110.320;2023-06-14T07:16:49;16.52;;;3.67;;
64500;SDS011;50874;24.150;-110.320;2023-06-14T07:19:15;14.60;;;3.28;;
64500;SDS011;50874;24.150;-110.320;2023-06-14T07:21:42;15.90;;;3.55;;
64500;SDS011;50874;24.150;-110.320;2023-06-14T07:24:09;20.95;;;3.30;;
64500;SDS011;50874;24.150;-110.320;2023-06-14T07:26:35;20.13;;;3.47;;
64500;SDS011;50874;24.150;-110.320;2023-06-14T07:29:02;19.27;;;3.38;;
64500;SDS011;50874;24.150;-110.320;2023-06-14T07:31:28;19.55;;;3.40;;
64500;SDS011;50874;24.150;-110.320;2023-06-14T07:33:55;12.88;;;3.33;;
64500;SDS011;50874;24.150;-110.320;2023-06-14T07:36:21;19.98;;;3.80;;
64500;SDS011;50874;24.150;-110.320;2023-06-14T07:38:48;18.58;;;3.00;;
64500;SDS011;50874;24.150;-110.320;2023-06-14T07:41:15;20.42;;;3.60;;
64500;SDS011;50874;24.150;-110.320;2023-06-14T07:43:42;16.88;;;3.53;;
64500;SDS011;50874;24.150;-110.320;2023-06-14T07:46:08;23.10;;;3.70;;
64500;SDS011;50874;24.150;-110.320;2023-06-14T07:48:35;15.68;;;3.20;;
64500;SDS011;50874;24.150;-110.320;2023-06-14T07:51:02;26.88;;;5.25;;
64500;SDS011;50874;24.150;-110.320;2023-06-14T07:53:29;19.05;;;3.53;;
64500;SDS011;50874;24.150;-110.320;2023-06-14T07:55:56;24.45;;;4.15;;
64500;SDS011;50874;24.150;-110.320;2023-06-14T07:58:22;20.15;;;3.15;;
64500;SDS011;50874;24.150;-110.320;2023-06-14T08:00:49;20.80;;;3.15;;
64500;SDS011;50874;24.150;-110.320;2023-06-14T08:03:18;13.80;;;2.92;;
64500;SDS011;50874;24.150;-110.320;2023-06-14T08:05:45;12.52;;;3.25;;
64500;SDS011;50874;24.150;-110.320;2023-06-14T08:08:11;15.60;;;3.50;;
64500;SDS011;50874;24.150;-110.320;2023-06-14T08:10:38;18.90;;;3.35;;
64500;SDS011;50874;24.150;-110.320;2023-06-14T08:13:05;19.70;;;3.65;;
64500;SDS011;50874;24.150;-110.320;2023-06-14T08:15:31;16.13;;;3.95;;
64500;SDS011;50874;24.150;-110.320;2023-06-14T08:17:58;13.13;;;3.35;;
64500;SDS011;50874;24.150;-110.320;2023-06-14T08:20:26;15.93;;;3.75;;
64500;SDS011;50874;24.150;-110.320;2023-06-14T08:22:52;15.75;;;3.50;;
64500;SDS011;50874;24.150;-110.320;2023-06-14T08:25:22;17.30;;;3.70;;
64500;SDS011;50874;24.150;-110.320;2023-06-14T08:27:49;19.00;;;4.03;;
64500;SDS011;50874;24.150;-110.320;2023-06-14T08:30:15;17.50;;;3.55;;
64500;SDS011;50874;24.150;-110.320;2023-06-14T08:32:43;15.32;;;3.42;;
64500;SDS011;50874;24.150;-110.320;2023-06-14T08:35:10;19.05;;;3.35;;
64500;SDS011;50874;24.150;-110.320;2023-06-14T08:37:38;17.00;;;3.13;;
64500;SDS011;50874;24.150;-110.320;2023-06-14T08:40:07;17.95;;;3.53;;
64500;SDS011;50874;24.150;-110.320;2023-06-14T08:42:39;24.77;;;4.00;;
64500;SDS011;50874;24.150;-110.320;2023-06-14T08:45:07;18.25;;;3.08;;
64500;SDS011;50874;24.150;-110.320;2023-06-14T08:47:33;18.45;;;3.88;;
64500;SDS011;50874;24.150;-110.320;2023-06-14T08:50:02;14.77;;;3.88;;
64500;SDS011;50874;24.150;-110.320;2023-06-14T08:52:29;16.85;;;4.72;;
64500;SDS011;50874;24.150;-110.320;2023-06-14T08:54:59;17.70;;;3.78;;
64500;SDS011;50874;24.150;-110.320;2023-06-14T08:57:27;15.00;;;3.28;;
64500;SDS011;50874;24.150;-110.320;2023-06-14T08:59:55;17.33;;;3.42;;
64500;SDS011;50874;24.150;-110.320;2023-06-14T09:02:22;14.63;;;3.40;;
64500;SDS011;50874;24.150;-110.320;2023-06-14T09:04:50;16.00;;;3.85;;
64500;SDS011;50874;24.150;-110.320;2023-06-14T09:07:24;13.95;;;3.42;;
64500;SDS011;50874;24.150;-110.320;2023-06-14T09:10:04;15.60;;;3.10;;
64500;SDS011;50874;24.150;-110.320;2023-06-14T09:12:36;18.25;;;3.75;;
64500;SDS011;50874;24.150;-110.320;2023-06-14T09:15:05;12.20;;;2.80;;
64500;SDS011;50874;24.150;-110.320;2023-06-14T09:17:37;15.32;;;3.17;;
64500;SDS011;50874;24.150;-110.320;2023-06-14T09:20:05;16.52;;;3.58;;
64500;SDS011;50874;24.150;-110.320;2023-06-14T09:22:35;26.45;;;3.13;;
64500;SDS011;50874;24.150;-110.320;2023-06-14T09:25:03;14.82;;;3.65;;
64500;SDS011;50874;24.150;-110.320;2023-06-14T09:27:30;18.30;;;3.45;;
64500;SDS011;50874;24.150;-110.320;2023-06-14T09:29:57;21.45;;;3.75;;
64500;SDS011;50874;24.150;-110.320;2023-06-14T09:32:24;15.98;;;3.60;;
64500;SDS011;50874;24.150;-110.320;2023-06-14T09:34:51;16.23;;;4.45;;
64500;SDS011;50874;24.150;-110.320;2023-06-14T09:37:31;13.52;;;2.80;;
64500;SDS011;50874;24.150;-110.320;2023-06-14T09:39:58;18.58;;;3.92;;
64500;SDS011;50874;24.150;-110.320;2023-06-14T09:42:25;13.65;;;3.22;;
64500;SDS011;50874;24.150;-110.320;2023-06-14T09:44:52;14.55;;;3.38;;
64500;SDS011;50874;24.150;-110.320;2023-06-14T09:47:21;12.93;;;3.17;;
64500;SDS011;50874;24.150;-110.320;2023-06-14T09:49:48;17.25;;;3.65;;
64500;SDS011;50874;24.150;-110.320;2023-06-14T09:52:19;12.25;;;3.38;;
64500;SDS011;50874;24.150;-110.320;2023-06-14T09:54:46;19.52;;;3.15;;
64500;SDS011;50874;24.150;-110.320;2023-06-14T09:57:21;18.38;;;4.00;;
64500;SDS011;50874;24.150;-110.320;2023-06-14T09:59:48;13.55;;;2.75;;
64500;SDS011;50874;24.150;-110.320;2023-06-14T10:02:29;18.38;;;5.30;;
64500;SDS011;50874;24.150;-110.320;2023-06-14T10:08:19;14.60;;;3.20;;
64500;SDS011;50874;24.150;-110.320;2023-06-14T10:10:30;17.25;;;3.53;;
64500;SDS011;50874;24.150;-110.320;2023-06-14T10:12:57;19.88;;;3.70;;
64500;SDS011;50874;24.150;-110.320;2023-06-14T10:15:28;18.38;;;3.67;;
64500;SDS011;50874;24.150;-110.320;2023-06-14T10:18:54;11.88;;;3.22;;
64500;SDS011;50874;24.150;-110.320;2023-06-14T10:21:02;22.98;;;3.63;;
64500;SDS011;50874;24.150;-110.320;2023-06-14T10:23:50;11.75;;;2.90;;
64500;SDS011;50874;24.150;-110.320;2023-06-14T10:26:22;16.60;;;3.40;;
64500;SDS011;50874;24.150;-110.320;2023-06-14T10:31:48;11.07;;;4.05;;
64500;SDS011;50874;24.150;-110.320;2023-06-14T10:34:23;13.93;;;3.67;;
64500;SDS011;50874;24.150;-110.320;2023-06-14T10:37:00;8.77;;;2.55;;
64500;SDS011;50874;24.150;-110.320;2023-06-14T10:39:28;12.80;;;3.63;;
64500;SDS011;50874;24.150;-110.320;2023-06-14T10:41:56;12.93;;;2.78;;
64500;SDS011;50874;24.150;-110.320;2023-06-14T10:46:52;14.20;;;2.97;;
64500;SDS011;50874;24.150;-110.320;2023-06-14T10:49:19;8.10;;;2.78;;
64500;SDS011;50874;24.150;-110.320;2023-06-14T10:51:49;12.70;;;2.70;;
64500;SDS011;50874;24.150;-110.320;2023-06-14T10:54:17;8.35;;;2.40;;
64500;SDS011;50874;24.150;-110.320;2023-06-14T10:56:46;12.38;;;2.70;;
64500;SDS011;50874;24.150;-110.320;2023-06-14T10:59:17;10.13;;;2.80;;
64500;SDS011;50874;24.150;-110.320;2023-06-14T11:04:49;15.52;;;2.72;;
64500;SDS011;50874;24.150;-110.320;2023-06-14T11:13:09;7.00;;;2.20;;
64500;SDS011;50874;24.150;-110.320;2023-06-14T11:15:36;8.82;;;2.30;;
64500;SDS011;50874;24.150;-110.320;2023-06-14T11:18:06;11.55;;;2.70;;
64500;SDS011;50874;24.150;-110.320;2023-06-14T11:20:35;12.35;;;2.70;;
64500;SDS011;50874;24.150;-110.320;2023-06-14T11:23:03;13.98;;;3.00;;
64500;SDS011;50874;24.150;-110.320;2023-06-14T11:25:30;14.50;;;3.17;;
64500;SDS011;50874;24.150;-110.320;2023-06-14T11:27:57;16.60;;;3.00;;
64500;SDS011;50874;24.150;-110.320;2023-06-14T11:30:24;14.63;;;3.08;;
64500;SDS011;50874;24.150;-110.320;2023-06-14T11:32:52;12.20;;;3.10;;
64500;SDS011;50874;24.150;-110.320;2023-06-14T11:35:19;14.13;;;2.83;;
64500;SDS011;50874;24.150;-110.320;2023-06-14T11:37:48;15.40;;;3.00;;
64500;SDS011;50874;24.150;-110.320;2023-06-14T11:40:25;17.30;;;3.55;;
64500;SDS011;50874;24.150;-110.320;2023-06-14T11:42:59;24.08;;;2.97;;
64500;SDS011;50874;24.150;-110.320;2023-06-14T11:45:27;9.13;;;3.20;;
64500;SDS011;50874;24.150;-110.320;2023-06-14T11:47:55;11.05;;;2.92;;
64500;SDS011;50874;24.150;-110.320;2023-06-14T11:50:25;14.88;;;3.03;;
64500;SDS011;50874;24.150;-110.320;2023-06-14T11:52:56;11.75;;;2.55;;
64500;SDS011;50874;24.150;-110.320;2023-06-14T11:55:41;18.45;;;3.08;;
64500;SDS011;50874;24.150;-110.320;2023-06-14T11:58:10;10.10;;;2.60;;
64500;SDS011;50874;24.150;-110.320;2023-06-14T12:00:36;13.85;;;2.53;;
64500;SDS011;50874;24.150;-110.320;2023-06-14T12:03:03;7.05;;;2.55;;
64500;SDS011;50874;24.150;-110.320;2023-06-14T12:05:30;12.65;;;3.00;;
64500;SDS011;50874;24.150;-110.320;2023-06-14T12:07:59;11.75;;;2.13;;
64500;SDS011;50874;24.150;-110.320;2023-06-14T12:10:28;15.18;;;3.20;;
64500;SDS011;50874;24.150;-110.320;2023-06-14T12:12:58;39.40;;;5.57;;
64500;SDS011;50874;24.150;-110.320;2023-06-14T12:15:27;11.73;;;2.80;;
64500;SDS011;50874;24.150;-110.320;2023-06-14T12:17:54;13.07;;;2.75;;
64500;SDS011;50874;24.150;-110.320;2023-06-14T12:20:21;13.02;;;2.72;;
64500;SDS011;50874;24.150;-110.320;2023-06-14T12:22:52;10.02;;;2.15;;
64500;SDS011;50874;24.150;-110.320;2023-06-14T12:25:30;13.68;;;3.03;;
64500;SDS011;50874;24.150;-110.320;2023-06-14T12:27:59;31.30;;;3.63;;
64500;SDS011;50874;24.150;-110.320;2023-06-14T12:30:35;27.02;;;4.15;;
64500;SDS011;50874;24.150;-110.320;2023-06-14T12:33:03;14.10;;;2.85;;
64500;SDS011;50874;24.150;-110.320;2023-06-14T12:35:30;20.88;;;2.75;;
64500;SDS011;50874;24.150;-110.320;2023-06-14T12:37:57;13.45;;;2.50;;
64500;SDS011;50874;24.150;-110.320;2023-06-14T12:40:24;11.82;;;2.35;;
64500;SDS011;50874;24.150;-110.320;2023-06-14T12:42:51;16.13;;;3.08;;
64500;SDS011;50874;24.150;-110.320;2023-06-14T12:45:18;80.97;;;8.50;;
64500;SDS011;50874;24.150;-110.320;2023-06-14T12:47:44;20.35;;;4.90;;
64500;SDS011;50874;24.150;-110.320;2023-06-14T12:50:11;28.15;;;3.47;;
64500;SDS011;50874;24.150;-110.320;2023-06-14T12:52:37;24.33;;;4.30;;
64500;SDS011;50874;24.150;-110.320;2023-06-14T12:55:04;19.35;;;3.53;;
64500;SDS011;50874;24.150;-110.320;2023-06-14T12:57:31;38.58;;;6.40;;
64500;SDS011;50874;24.150;-110.320;2023-06-14T12:59:59;27.90;;;3.95;;
64500;SDS011;50874;24.150;-110.320;2023-06-14T13:02:26;29.35;;;4.07;;
64500;SDS011;50874;24.150;-110.320;2023-06-14T13:04:52;30.63;;;5.05;;
64500;SDS011;50874;24.150;-110.320;2023-06-14T13:07:19;44.13;;;7.93;;
64500;SDS011;50874;24.150;-110.320;2023-06-14T13:09:45;30.05;;;3.97;;
64500;SDS011;50874;24.150;-110.320;2023-06-14T13:12:12;26.35;;;4.57;;
64500;SDS011;50874;24.150;-110.320;2023-06-14T13:14:38;40.78;;;6.25;;
64500;SDS011;50874;24.150;-110.320;2023-06-14T13:17:07;44.17;;;5.43;;
64500;SDS011;50874;24.150;-110.320;2023-06-14T13:19:35;47.50;;;6.50;;
64500;SDS011;50874;24.150;-110.320;2023-06-14T13:22:02;42.80;;;5.35;;
64500;SDS011;50874;24.150;-110.320;2023-06-14T13:24:29;38.97;;;5.15;;
64500;SDS011;50874;24.150;-110.320;2023-06-14T13:26:56;35.40;;;5.30;;
64500;SDS011;50874;24.150;-110.320;2023-06-14T13:29:23;99.93;;;12.48;;
64500;SDS011;50874;24.150;-110.320;2023-06-14T13:31:50;56.70;;;7.10;;
64500;SDS011;50874;24.150;-110.320;2023-06-14T13:34:16;57.28;;;8.38;;
64500;SDS011;50874;24.150;-110.320;2023-06-14T13:36:43;143.55;;;17.52;;
64500;SDS011;50874;24.150;-110.320;2023-06-14T13:39:09;63.08;;;9.25;;
64500;SDS011;50874;24.150;-110.320;2023-06-14T13:41:38;252.13;;;27.92;;
64500;SDS011;50874;24.150;-110.320;2023-06-14T13:44:05;59.20;;;9.63;;
64500;SDS011;50874;24.150;-110.320;2023-06-14T13:46:31;196.82;;;21.15;;
64500;SDS011;50874;24.150;-110.320;2023-06-14T13:48:58;339.45;;;35.92;;
64500;SDS011;50874;24.150;-110.320;2023-06-14T13:51:26;333.10;;;39.13;;
64500;SDS011;50874;24.150;-110.320;2023-06-14T13:53:53;226.95;;;28.92;;
64500;SDS011;50874;24.150;-110.320;2023-06-14T13:56:20;357.13;;;45.25;;
64500;SDS011;50874;24.150;-110.320;2023-06-14T13:58:50;293.25;;;33.45;;
64500;SDS011;50874;24.150;-110.320;2023-06-14T14:01:17;147.20;;;17.13;;
64500;SDS011;50874;24.150;-110.320;2023-06-14T14:03:45;119.43;;;14.57;;
64500;SDS011;50874;24.150;-110.320;2023-06-14T14:06:12;486.60;;;58.40;;
64500;SDS011;50874;24.150;-110.320;2023-06-14T14:08:39;256.17;;;32.45;;
64500;SDS011;50874;24.150;-110.320;2023-06-14T14:11:06;134.77;;;17.98;;
64500;SDS011;50874;24.150;-110.320;2023-06-14T14:13:35;191.82;;;28.45;;
64500;SDS011;50874;24.150;-110.320;2023-06-14T14:16:03;252.80;;;43.70;;
64500;SDS011;50874;24.150;-110.320;2023-06-14T14:18:30;251.02;;;59.08;;
64500;SDS011;50874;24.150;-110.320;2023-06-14T14:20:58;240.70;;;53.75;;
64500;SDS011;50874;24.150;-110.320;2023-06-14T14:23:26;284.75;;;52.05;;
64500;SDS011;50874;24.150;-110.320;2023-06-14T14:25:52;221.10;;;39.20;;
64500;SDS011;50874;24.150;-110.320;2023-06-14T14:28:18;192.32;;;35.97;;